createdAt,value
2019-06-07T00:01:48.185Z,99.90
2019-06-07T00:04:21.054Z,99.90
2019-06-07T00:06:48.550Z,99.90
2019-06-07T00:09:22.279Z,99.90
2019-06-07T00:11:48.910Z,99.90
2019-06-07T00:14:18.961Z,99.90
2019-06-07T00:16:49.247Z,99.90
2019-06-07T00:19:18.982Z,99.90
2019-06-07T00:22:29.643Z,99.90
2019-06-07T00:24:21.881Z,99.90
2019-06-07T00:26:58.295Z,99.90
2019-06-07T00:29:22.079Z,99.90
2019-06-07T00:31:51.741Z,99.90
2019-06-07T00:34:23.039Z,99.90
2019-06-07T00:36:52.130Z,99.90
2019-06-07T00:39:25.231Z,99.90
2019-06-07T00:41:52.452Z,99.90
2019-06-07T00:44:23.364Z,99.90
2019-06-07T00:46:53.015Z,99.90
2019-06-07T00:49:39.976Z,99.90
2019-06-07T00:51:53.874Z,99.90
2019-06-07T00:54:24.822Z,99.90
2019-06-07T00:56:54.719Z,99.90
2019-06-07T00:59:29.142Z,99.90
2019-06-07T01:01:55.213Z,99.90
2019-06-07T01:04:26.341Z,99.90
2019-06-07T01:06:55.593Z,99.90
2019-06-07T01:09:25.532Z,99.90
2019-06-07T01:11:55.058Z,99.90
2019-06-07T01:14:27.747Z,99.90
2019-06-07T01:17:01.447Z,99.90
2019-06-07T01:19:27.744Z,99.90
2019-06-07T01:21:57.729Z,99.90
2019-06-07T01:24:27.995Z,99.90
2019-06-07T01:26:57.724Z,99.90
2019-06-07T01:29:29.465Z,99.90
2019-06-07T01:31:58.098Z,99.90
2019-06-07T01:34:28.689Z,99.90
2019-06-07T01:36:58.423Z,99.90
2019-06-07T01:39:29.758Z,99.90
2019-06-07T01:41:58.693Z,99.90
2019-06-07T01:44:30.333Z,99.90
2019-06-07T01:46:58.953Z,99.90
2019-06-07T01:49:29.694Z,99.90
2019-06-07T01:51:59.525Z,99.90
2019-06-07T01:56:59.973Z,99.90
2019-06-07T01:59:31.418Z,99.90
2019-06-07T02:02:00.375Z,99.90
2019-06-07T02:04:32.810Z,99.90
2019-06-07T02:07:00.917Z,99.90
2019-06-07T02:09:31.929Z,99.90
2019-06-07T02:12:01.397Z,99.90
2019-06-07T02:14:33.470Z,99.90
2019-06-07T02:17:01.807Z,99.90
2019-06-07T02:19:33.036Z,99.90
2019-06-07T02:22:02.236Z,99.90
2019-06-07T02:24:36.014Z,99.90
2019-06-07T02:27:05.264Z,99.90
2019-06-07T02:29:34.668Z,99.90
2019-06-07T02:32:04.019Z,99.90
2019-06-07T02:34:38.761Z,99.90
2019-06-07T02:37:04.514Z,99.90
2019-06-07T02:39:40.514Z,99.90
2019-06-07T02:42:05.954Z,99.90
2019-06-07T02:44:39.422Z,99.90
2019-06-07T02:47:07.239Z,99.90
2019-06-07T02:49:41.134Z,99.90
2019-06-07T02:52:07.683Z,99.90
2019-06-07T02:54:40.276Z,99.90
2019-06-07T02:57:08.111Z,99.90
2019-06-07T03:00:02.892Z,99.90
2019-06-07T03:02:08.515Z,99.90
2019-06-07T03:04:44.044Z,99.90
2019-06-07T03:07:12.075Z,99.90
2019-06-07T03:09:42.242Z,99.90
2019-06-07T03:12:13.609Z,99.90
2019-06-07T03:14:44.667Z,99.90
2019-06-07T03:17:26.706Z,99.90
2019-06-07T03:19:57.508Z,99.90
2019-06-07T03:22:26.904Z,99.90
2019-06-07T03:24:57.263Z,99.90
2019-06-07T03:27:36.154Z,99.90
2019-06-07T03:29:57.835Z,99.90
2019-06-07T03:32:30.360Z,99.90
2019-06-07T03:34:58.223Z,99.90
2019-06-07T03:37:29.964Z,99.90
2019-06-07T03:39:58.623Z,99.90
2019-06-07T03:42:29.146Z,99.90
2019-06-07T03:44:58.687Z,99.90
2019-06-07T03:47:30.699Z,99.90
2019-06-07T03:49:59.231Z,99.90
2019-06-07T03:52:30.032Z,99.90
2019-06-07T03:54:59.545Z,99.90
2019-06-07T03:57:30.383Z,99.90
2019-06-07T03:59:59.934Z,99.90
2019-06-07T04:02:30.367Z,99.90
2019-06-07T04:05:00.383Z,99.90
2019-06-07T04:07:31.150Z,99.90
2019-06-07T04:10:00.837Z,99.90
2019-06-07T04:12:31.848Z,99.90
2019-06-07T04:15:01.110Z,99.90
2019-06-07T04:17:31.146Z,99.90
2019-06-07T04:20:01.511Z,99.90
2019-06-07T04:22:31.476Z,99.90
2019-06-07T04:25:04.259Z,99.90
2019-06-07T04:27:35.610Z,99.90
2019-06-07T04:30:07.952Z,99.90
2019-06-07T04:32:39.471Z,99.90
2019-06-07T04:35:07.644Z,99.90
2019-06-07T04:37:41.139Z,99.90
2019-06-07T04:40:11.355Z,99.90
2019-06-07T04:42:45.193Z,99.90
2019-06-07T04:45:33.223Z,99.90
2019-06-07T04:47:46.501Z,99.90
2019-06-07T04:50:16.045Z,99.90
2019-06-07T04:52:45.904Z,99.90
2019-06-07T04:55:15.347Z,99.90
2019-06-07T04:57:44.761Z,99.90
2019-06-07T05:00:46.770Z,99.90
2019-06-07T05:02:45.085Z,99.90
2019-06-07T05:05:14.562Z,99.90
2019-06-07T05:07:46.333Z,99.90
2019-06-07T05:10:14.930Z,99.90
2019-06-07T05:12:46.359Z,99.90
2019-06-07T05:15:15.690Z,99.90
2019-06-07T05:17:45.290Z,99.90
2019-06-07T05:20:16.120Z,99.90
2019-06-07T05:22:46.445Z,99.90
2019-06-07T05:25:16.507Z,99.90
2019-06-07T05:27:46.906Z,99.90
2019-06-07T05:30:59.727Z,99.90
2019-06-07T05:33:00.244Z,99.90
2019-06-07T05:35:30.683Z,99.90
2019-06-07T05:38:00.118Z,99.90
2019-06-07T05:40:36.530Z,99.90
2019-06-07T05:43:06.652Z,99.90
2019-06-07T05:45:42.287Z,99.90
2019-06-07T05:48:08.712Z,99.90
2019-06-07T05:50:44.861Z,99.90
2019-06-07T05:53:09.195Z,99.90
2019-06-07T05:55:41.557Z,99.90
2019-06-07T05:58:09.534Z,99.90
2019-06-07T06:00:40.813Z,99.90
2019-06-07T06:03:09.846Z,99.90
2019-06-07T06:05:43.262Z,99.90
2019-06-07T06:08:10.254Z,99.90
2019-06-07T06:10:44.913Z,99.90
2019-06-07T06:13:11.427Z,99.90
2019-06-07T06:15:53.685Z,99.60
2019-06-07T06:18:11.817Z,97.50
2019-06-07T06:21:08.550Z,94.00
2019-06-07T06:23:12.237Z,88.80
2019-06-07T06:25:50.168Z,85.20
2019-06-07T06:28:13.259Z,85.00
2019-06-07T06:30:47.304Z,87.00
2019-06-07T06:33:30.837Z,89.70
2019-06-07T06:35:48.898Z,89.40
2019-06-07T06:38:16.666Z,89.40
2019-06-07T06:40:49.068Z,89.90
2019-06-07T06:43:17.362Z,90.30
2019-06-07T06:45:50.350Z,89.90
2019-06-07T06:48:18.119Z,90.10
2019-06-07T06:50:51.776Z,89.60
2019-06-07T06:53:18.448Z,88.70
2019-06-07T06:55:49.347Z,86.10
2019-06-07T06:58:18.686Z,76.50
2019-06-07T07:01:04.465Z,67.10
2019-06-07T07:03:54.192Z,59.80
2019-06-07T07:05:54.330Z,55.40
2019-06-07T07:08:23.905Z,53.20
2019-06-07T07:10:55.094Z,51.50
2019-06-07T07:13:24.171Z,47.90
2019-06-07T07:15:57.923Z,46.90
2019-06-07T07:18:24.528Z,46.50
2019-06-07T07:20:57.175Z,46.00
2019-06-07T07:23:25.021Z,44.60
2019-06-07T07:25:59.274Z,44.00
2019-06-07T07:28:25.574Z,42.00
2019-06-07T07:30:57.064Z,41.10
2019-06-07T07:34:12.780Z,41.90
2019-06-07T07:38:29.870Z,41.00
2019-06-07T07:41:14.128Z,41.50
2019-06-07T07:43:30.502Z,40.80
2019-06-07T07:46:03.572Z,40.70
2019-06-07T07:48:31.405Z,40.00
2019-06-07T07:51:03.155Z,40.00
2019-06-07T07:53:47.828Z,41.30
2019-06-07T07:56:03.083Z,40.50
2019-06-07T07:58:32.645Z,40.90
2019-06-07T08:01:10.294Z,39.80
2019-06-07T08:03:33.090Z,39.40
2019-06-07T08:06:02.368Z,40.20
2019-06-07T08:08:31.834Z,40.50
2019-06-07T08:11:02.334Z,41.30
2019-06-07T08:13:31.923Z,42.90
2019-06-07T08:16:09.770Z,43.30
2019-06-07T08:18:32.324Z,42.50
2019-06-07T08:21:21.825Z,42.50
2019-06-07T08:23:32.650Z,42.00
2019-06-07T08:26:02.061Z,41.30
2019-06-07T08:28:31.449Z,41.20
2019-06-07T08:31:06.408Z,40.60
2019-06-07T08:33:32.016Z,43.20
2019-06-07T08:36:19.444Z,45.00
2019-06-07T08:38:46.931Z,47.30
2019-06-07T08:41:11.513Z,50.40
2019-06-07T08:43:34.550Z,52.30
2019-06-07T08:46:07.257Z,51.60
2019-06-07T08:48:34.942Z,51.70
2019-06-07T08:51:08.043Z,52.50
2019-06-07T08:53:35.714Z,54.50
2019-06-07T08:56:09.174Z,51.10
2019-06-07T08:58:36.246Z,48.90
2019-06-07T09:01:08.674Z,46.20
2019-06-07T09:03:36.815Z,44.60
2019-06-07T09:06:16.345Z,43.10
2019-06-07T09:08:37.666Z,42.20
2019-06-07T09:11:11.397Z,42.90
2019-06-07T09:13:38.014Z,42.90
2019-06-07T09:16:09.014Z,43.80
2019-06-07T09:18:43.993Z,46.00
2019-06-07T09:21:10.107Z,48.50
2019-06-07T09:23:39.547Z,46.80
2019-06-07T09:26:16.563Z,44.80
2019-06-07T09:28:39.914Z,44.30
2019-06-07T09:31:12.225Z,46.10
2019-06-07T09:33:40.265Z,45.50
2019-06-07T09:36:12.909Z,45.30
2019-06-07T09:38:40.778Z,44.80
2019-06-07T09:41:10.035Z,45.70
2019-06-07T09:44:01.398Z,45.00
2019-06-07T09:46:15.405Z,44.30
2019-06-07T09:51:19.648Z,42.80
2019-06-07T09:53:45.231Z,44.00
2019-06-07T09:56:14.650Z,45.60
2019-06-07T09:58:53.747Z,47.60
2019-06-07T10:01:15.158Z,47.00
2019-06-07T10:03:44.458Z,47.10
2019-06-07T10:06:14.107Z,47.50
2019-06-07T10:10:04.668Z,48.20
2019-06-07T10:11:17.620Z,48.40
2019-06-07T10:13:46.940Z,48.70
2019-06-07T10:16:16.302Z,48.30
2019-06-07T10:18:45.775Z,51.30
2019-06-07T10:21:15.706Z,49.80
2019-06-07T10:23:45.247Z,50.50
2019-06-07T10:26:14.618Z,52.70
2019-06-07T10:28:43.905Z,53.30
2019-06-07T10:31:14.858Z,52.20
2019-06-07T10:33:44.287Z,51.80
2019-06-07T10:36:14.410Z,53.80
2019-06-07T10:38:43.780Z,54.90
2019-06-07T10:41:13.150Z,54.80
2019-06-07T10:43:42.593Z,53.20
2019-06-07T10:46:12.163Z,52.20
2019-06-07T10:48:41.666Z,51.80
2019-06-07T10:51:12.369Z,53.80
2019-06-07T10:53:42.007Z,55.70
2019-06-07T10:56:11.401Z,56.00
2019-06-07T10:58:40.890Z,56.80
2019-06-07T11:01:12.877Z,56.90
2019-06-07T11:03:41.934Z,55.30
2019-06-07T11:06:12.170Z,54.50
2019-06-07T11:08:41.858Z,54.00
2019-06-07T11:11:12.250Z,55.30
2019-06-07T11:13:42.868Z,56.60
2019-06-07T11:16:13.059Z,58.80
2019-06-07T11:18:42.728Z,60.20
2019-06-07T11:21:12.225Z,60.80
2019-06-07T11:23:41.682Z,61.10
2019-06-07T11:26:12.503Z,61.70
2019-06-07T11:28:42.095Z,61.40
2019-06-07T11:31:15.074Z,60.60
2019-06-07T11:33:44.685Z,62.00
2019-06-07T11:36:15.298Z,63.20
2019-06-07T11:38:45.803Z,63.20
2019-06-07T11:41:17.871Z,64.40
2019-06-07T11:43:47.513Z,65.60
2019-06-07T11:46:17.263Z,66.40
2019-06-07T11:48:46.661Z,65.10
2019-06-07T11:51:16.010Z,64.30
2019-06-07T11:53:45.455Z,65.80
2019-06-07T11:56:16.045Z,66.40
2019-06-07T11:58:45.441Z,67.10
2019-06-07T12:01:16.641Z,66.80
2019-06-07T12:03:48.320Z,66.80
2019-06-07T12:06:18.090Z,66.20
2019-06-07T12:08:47.721Z,67.50
2019-06-07T12:11:19.846Z,66.80
2019-06-07T12:13:49.206Z,64.50
2019-06-07T12:16:19.425Z,64.20
2019-06-07T12:18:49.127Z,66.00
2019-06-07T12:21:19.814Z,69.10
2019-06-07T12:23:49.446Z,70.40
2019-06-07T12:26:18.809Z,71.60
2019-06-07T12:28:48.093Z,74.00
2019-06-07T12:31:17.446Z,74.30
2019-06-07T12:33:47.785Z,72.50
2019-06-07T12:36:17.840Z,72.20
2019-06-07T12:38:49.308Z,72.80
2019-06-07T12:41:18.861Z,73.20
2019-06-07T12:43:48.353Z,74.90
2019-06-07T12:46:23.117Z,76.20
2019-06-07T12:48:49.880Z,74.70
2019-06-07T12:51:21.268Z,75.60
2019-06-07T12:53:50.841Z,77.00
2019-06-07T12:56:20.313Z,77.40
2019-06-07T12:58:50.686Z,78.30
2019-06-07T13:01:20.880Z,79.80
2019-06-07T13:03:50.814Z,79.10
2019-06-07T13:06:21.597Z,79.40
2019-06-07T13:08:51.186Z,78.60
2019-06-07T13:11:26.183Z,79.00
2019-06-07T13:13:51.566Z,79.50
2019-06-07T13:16:22.063Z,79.60
2019-06-07T13:18:51.503Z,80.00
2019-06-07T13:21:22.273Z,79.20
2019-06-07T13:23:51.839Z,78.30
2019-06-07T13:26:22.751Z,77.30
2019-06-07T13:28:52.183Z,76.30
2019-06-07T13:31:23.261Z,75.60
2019-06-07T13:33:53.089Z,75.30
2019-06-07T13:36:22.508Z,75.40
2019-06-07T13:38:51.931Z,73.70
2019-06-07T13:41:35.269Z,73.90
2019-06-07T13:43:52.501Z,74.70
2019-06-07T13:46:23.038Z,75.90
2019-06-07T13:48:52.562Z,77.80
2019-06-07T13:51:23.274Z,78.40
2019-06-07T13:53:53.214Z,79.40
2019-06-07T13:56:23.844Z,80.20
2019-06-07T13:58:53.403Z,80.70
2019-06-07T14:01:22.698Z,80.40
2019-06-07T14:03:52.011Z,79.50
2019-06-07T14:06:21.307Z,79.80
2019-06-07T14:08:51.497Z,80.30
2019-06-07T14:11:21.432Z,80.60
2019-06-07T14:13:50.786Z,80.90
2019-06-07T14:16:22.023Z,80.10
2019-06-07T14:18:51.472Z,80.70
2019-06-07T14:21:20.846Z,80.40
2019-06-07T14:23:50.233Z,81.30
2019-06-07T14:26:19.544Z,79.80
2019-06-07T14:28:48.894Z,80.40
2019-06-07T14:31:18.691Z,79.60
2019-06-07T14:33:48.065Z,79.50
2019-06-07T14:36:17.519Z,79.00
2019-06-07T14:38:46.997Z,78.30
2019-06-07T14:41:16.442Z,78.00
2019-06-07T14:43:45.890Z,77.00
2019-06-07T14:46:15.334Z,77.00
2019-06-07T14:48:44.713Z,76.20
2019-06-07T14:51:14.338Z,77.00
2019-06-07T14:53:43.766Z,76.90
2019-06-07T14:56:13.756Z,78.00
2019-06-07T14:58:43.635Z,78.50
2019-06-07T15:01:13.162Z,78.20
2019-06-07T15:03:42.570Z,76.80
2019-06-07T15:06:11.938Z,76.80
2019-06-07T15:08:41.333Z,77.10
2019-06-07T15:11:10.749Z,77.80
2019-06-07T15:13:40.614Z,77.30
2019-06-07T15:16:09.966Z,77.80
2019-06-07T15:18:39.215Z,78.20
2019-06-07T15:21:08.484Z,77.10
2019-06-07T15:23:39.261Z,76.60
2019-06-07T15:26:08.760Z,76.90
2019-06-07T15:28:38.521Z,77.50
2019-06-07T15:31:07.927Z,77.60
2019-06-07T15:33:38.414Z,76.90
2019-06-07T15:36:08.123Z,76.30
2019-06-07T15:38:39.095Z,76.80
2019-06-07T15:41:08.628Z,76.00
2019-06-07T15:43:39.305Z,75.70
2019-06-07T15:46:08.722Z,75.90
2019-06-07T15:48:38.379Z,75.90
2019-06-07T15:51:07.750Z,76.40
2019-06-07T15:53:42.303Z,76.70
2019-06-07T15:56:08.012Z,77.30
2019-06-07T15:58:39.400Z,75.80
2019-06-07T16:01:08.863Z,75.50
2019-06-07T16:03:39.731Z,75.70
2019-06-07T16:06:09.355Z,76.30
2019-06-07T16:08:38.707Z,76.50
2019-06-07T16:11:08.189Z,75.90
2019-06-07T16:13:38.706Z,76.10
2019-06-07T16:16:08.319Z,76.90
2019-06-07T16:18:39.564Z,77.00
2019-06-07T16:21:09.041Z,77.00
2019-06-07T16:23:39.744Z,77.00
2019-06-07T16:26:09.417Z,77.40
2019-06-07T16:28:38.657Z,76.70
2019-06-07T16:31:08.016Z,76.40
2019-06-07T16:33:38.534Z,77.00
2019-06-07T16:36:08.266Z,77.00
2019-06-07T16:38:38.062Z,77.30
2019-06-07T16:41:07.387Z,78.00
2019-06-07T16:43:36.667Z,77.90
2019-06-07T16:46:06.214Z,78.40
2019-06-07T16:48:36.737Z,78.40
2019-06-07T16:51:06.265Z,78.90
2019-06-07T16:53:36.168Z,78.90
2019-06-07T16:56:06.079Z,79.50
2019-06-07T16:58:35.359Z,78.90
2019-06-07T17:01:04.863Z,80.20
2019-06-07T17:03:34.254Z,79.80
2019-06-07T17:06:03.771Z,79.90
2019-06-07T17:08:33.276Z,80.10
2019-06-07T17:11:02.591Z,80.10
2019-06-07T17:13:33.690Z,80.10
2019-06-07T17:16:03.119Z,80.30
2019-06-07T17:18:32.466Z,80.70
2019-06-07T17:21:01.885Z,80.90
2019-06-07T17:23:31.149Z,81.10
2019-06-07T17:26:00.472Z,81.50
2019-06-07T17:28:30.341Z,81.80
2019-06-07T17:30:59.630Z,82.00
2019-06-07T17:33:29.093Z,82.30
2019-06-07T17:35:58.653Z,82.50
2019-06-07T17:38:27.985Z,82.80
2019-06-07T17:40:57.276Z,83.30
2019-06-07T17:43:26.839Z,83.60
2019-06-07T17:45:56.163Z,84.10
2019-06-07T17:48:25.660Z,84.20
2019-06-07T17:50:55.011Z,84.60
2019-06-07T17:53:26.394Z,85.10
2019-06-07T17:55:55.476Z,85.30
2019-06-07T17:58:25.017Z,85.50
2019-06-07T18:00:54.533Z,85.40
2019-06-07T18:03:23.974Z,85.60
2019-06-07T18:05:54.216Z,85.60
2019-06-07T18:08:25.399Z,85.90
2019-06-07T18:10:54.740Z,86.20
2019-06-07T18:13:24.263Z,86.60
2019-06-07T18:15:57.923Z,86.90
2019-06-07T18:18:24.622Z,87.30
2019-06-07T18:20:55.511Z,87.50
2019-06-07T18:23:25.103Z,87.80
2019-06-07T18:25:54.763Z,88.00
2019-06-07T18:28:24.698Z,88.10
2019-06-07T18:30:54.913Z,88.50
2019-06-07T18:33:24.749Z,88.50
2019-06-07T18:35:55.208Z,88.90
2019-06-07T18:38:24.835Z,89.20
2019-06-07T18:40:55.353Z,89.80
2019-06-07T18:43:25.162Z,90.00
2019-06-07T18:45:55.973Z,90.30
2019-06-07T18:48:25.458Z,90.50
2019-06-07T18:50:54.864Z,90.80
2019-06-07T18:53:24.186Z,91.10
2019-06-07T18:55:54.006Z,91.30
2019-06-07T18:58:23.662Z,91.50
2019-06-07T19:00:53.798Z,91.80
2019-06-07T19:03:23.449Z,92.00
2019-06-07T19:05:54.290Z,92.20
2019-06-07T19:08:23.627Z,92.50
2019-06-07T19:10:53.004Z,92.60
2019-06-07T19:13:22.433Z,92.80
2019-06-07T19:15:51.796Z,93.00
2019-06-07T19:18:21.800Z,93.20
2019-06-07T19:20:52.439Z,93.40
2019-06-07T19:23:21.777Z,93.50
2019-06-07T19:25:52.122Z,93.80
2019-06-07T19:28:22.119Z,94.00
2019-06-07T19:30:51.394Z,94.50
2019-06-07T19:33:20.654Z,94.20
2019-06-07T19:35:51.306Z,94.40
2019-06-07T19:38:20.893Z,94.50
2019-06-07T19:40:50.278Z,94.70
2019-06-07T19:43:19.713Z,94.70
2019-06-07T19:45:49.078Z,94.80
2019-06-07T19:48:18.862Z,95.00
2019-06-07T19:50:48.213Z,95.10
2019-06-07T19:53:17.462Z,95.20
2019-06-07T19:55:46.787Z,95.30
2019-06-07T19:58:16.139Z,95.50
2019-06-07T20:00:45.459Z,95.50
2019-06-07T20:03:14.932Z,95.50
2019-06-07T20:05:44.614Z,95.60
2019-06-07T20:08:14.155Z,95.70
2019-06-07T20:10:44.129Z,95.80
2019-06-07T20:13:15.175Z,95.90
2019-06-07T20:15:44.483Z,95.90
2019-06-07T20:18:13.914Z,96.10
2019-06-07T20:20:43.371Z,96.20
2019-06-07T20:23:12.828Z,96.40
2019-06-07T20:25:42.182Z,96.70
2019-06-07T20:28:11.502Z,96.90
2019-06-07T20:30:40.856Z,97.00
2019-06-07T20:33:10.201Z,97.00
2019-06-07T20:35:40.659Z,97.20
2019-06-07T20:38:09.956Z,97.40
2019-06-07T20:40:39.318Z,97.60
2019-06-07T20:43:08.754Z,97.70
2019-06-07T20:45:38.023Z,97.80
2019-06-07T20:48:08.474Z,98.00
2019-06-07T20:50:38.125Z,98.20
2019-06-07T20:53:09.026Z,98.40
2019-06-07T20:55:38.651Z,98.50
2019-06-07T20:58:07.991Z,98.50
2019-06-07T21:00:37.304Z,98.80
2019-06-07T21:03:07.361Z,98.70
2019-06-07T21:05:37.101Z,98.80
2019-06-07T21:08:09.805Z,98.90
2019-06-07T21:10:37.618Z,98.90
2019-06-07T21:13:08.150Z,99.00
2019-06-07T21:15:48.516Z,99.20
2019-06-07T21:18:16.908Z,99.20
2019-06-07T21:20:39.675Z,99.30
2019-06-07T21:23:09.098Z,99.40
2019-06-07T21:25:38.402Z,99.60
2019-06-07T21:28:07.747Z,99.50
2019-06-07T21:30:36.998Z,99.50
2019-06-07T21:33:07.639Z,99.70
2019-06-07T21:35:37.061Z,99.80
2019-06-07T21:38:07.753Z,99.90
2019-06-07T21:40:37.207Z,99.90
2019-06-07T21:43:06.763Z,99.90
2019-06-07T21:45:36.057Z,99.90
2019-06-07T21:48:07.027Z,99.90
2019-06-07T21:50:36.491Z,99.90
2019-06-07T21:53:06.567Z,99.90
2019-06-07T21:55:35.986Z,99.70
2019-06-07T21:58:05.298Z,99.80
2019-06-07T22:01:17.255Z,99.80
2019-06-07T22:03:46.836Z,99.80
2019-06-07T22:06:17.805Z,99.90
2019-06-07T22:08:47.139Z,99.90
2019-06-07T22:11:16.404Z,99.90
2019-06-07T22:13:45.698Z,99.90
2019-06-07T22:16:26.161Z,99.90
2019-06-07T22:18:46.041Z,99.90
2019-06-07T22:21:15.326Z,99.90
2019-06-07T22:23:44.577Z,99.90
2019-06-07T22:26:15.463Z,99.90
2019-06-07T22:28:44.921Z,99.90
2019-06-07T22:31:14.952Z,99.90
2019-06-07T22:33:44.608Z,99.90
2019-06-07T22:36:15.881Z,99.90
2019-06-07T22:38:44.964Z,99.90
2019-06-07T22:41:15.722Z,99.90
2019-06-07T22:43:45.325Z,99.90
2019-06-07T22:46:15.060Z,99.90
2019-06-07T22:48:44.489Z,99.90
2019-06-07T22:51:14.618Z,99.90
2019-06-07T22:53:44.535Z,99.90
2019-06-07T22:56:33.147Z,99.90
2019-06-07T22:59:02.486Z,99.90
2019-06-07T23:01:31.798Z,99.90
2019-06-07T23:04:01.087Z,99.90
2019-06-07T23:06:30.353Z,99.90
2019-06-07T23:08:59.771Z,99.90
2019-06-07T23:11:29.100Z,99.90
2019-06-07T23:13:58.483Z,99.90
2019-06-07T23:16:27.781Z,99.90
2019-06-07T23:18:57.125Z,99.90
2019-06-07T23:21:26.446Z,99.90
2019-06-07T23:23:55.991Z,99.90
2019-06-07T23:26:25.461Z,99.90
2019-06-07T23:28:54.839Z,99.90
2019-06-07T23:31:24.296Z,99.90
2019-06-07T23:33:54.134Z,99.90
2019-06-07T23:36:23.542Z,99.90
2019-06-07T23:38:52.786Z,99.90
2019-06-07T23:41:22.385Z,99.90
2019-06-07T23:43:51.827Z,99.90
2019-06-07T23:46:21.630Z,99.90
2019-06-07T23:48:51.042Z,99.90
2019-06-07T23:51:20.351Z,99.90
2019-06-07T23:53:49.722Z,99.90
2019-06-07T23:56:20.413Z,99.90
2019-06-07T23:58:50.632Z,99.90
